KEVWKVEL

Guest
Details From KEVW - Evanston Uinta Co Burns Fld
To KVEL - VERNAL
Flight Number -
Tags generated
Created
Modified
Stats Distance 87 nm / 161 km
Max Altitude 6,100 ft / 1,859 m
Waypoints 3
Social Downloads 0
Likes 0
Share VATSIM

Download

Looking for another format? Having issues loading an existing format? Contact us
Advertisement - Login to hide

Notes

Basic altitude profile: - Ascent Rate: 2500ft/min - Ascent Speed: 250kts - Cruise Altitude: 35000ft - Cruise Speed: 420kts - Descent Rate: 1500ft/min - Descent Speed: 250kts Options: - Use NATs: yes - Use PACOTS: yes - Use low airways: yes - Use high airways: yes

Route

KEVW GRODI KVEL

ID Type Via Altitude Latitude Longitude Leg Dist Tot Dist Heading (true) Name
O KEVW APT - 0 ft / 0 m 41.27479˚ -111.03462˚ - 0 nm - Evanston Uinta Co Burns Fld
GRODI FIX - 6,100 ft / 1,859 m 41.20674˚ -110.66525˚ 17 nm 17 nm 104° / 104° -
O KVEL APT - 0 ft / 0 m 40.44156˚ -109.50978˚ 69 nm 86 nm 131° / 132° VERNAL

Altitude Profile

Advertisement - Login to hide

KEVW

Details ICAO KEVW
Name Evanston Uinta Co Burns Fld
Region United States
Timezone America/Denver (UTC-7.0)
Stats Elevation 7,143 ft / 2,177 m (AMSL)
Location 41.274791° -111.034623°
Runways 1
Magnetic Variation 11.164° E

METAR

KEVW 170222Z AUTO 35007KT 10SM SCT004 OVC030 M05/M06 A2989 RMK AO2 T10501056 $

Decode

TAF

TAF TAF AMD KEVW 170132Z 1702/1724 34010KT 3SM -SN BR BKN015 OVC030 FM170400 29005KT P6SM BKN025 FM171500 27007KT P6SM SCT040 SCT120 FM172000 24011KT P6SM SCT040 SCT120

Decode

Departure Runways

ID Width Length Bearing (true) Bearing (mag) Surface Threshold Offset Overrun Length
05 98 ft / 30 m 7,588 ft / 2,313 m 66.69° 55.53° Asphalt 144 ft / 44 m 0 ft / 0 m
23 98 ft / 30 m 7,588 ft / 2,313 m 246.71° 235.55° Asphalt 144 ft / 44 m 0 ft / 0 m

KVEL

Details ICAO KVEL (VEL)
Name VERNAL
Region United States
Timezone America/Denver (UTC-7.0)
Stats Elevation 5,278 ft / 1,609 m (AMSL)
Location 40.441560° -109.509776°
Runways 2
Magnetic Variation 10.424° E

METAR

KVEL 170153Z AUTO 27004KT 10SM CLR M03/M11 A2981 RMK AO2 SLP123 T10281106

Decode

TAF

TAF KVEL 162320Z 1700/1724 14004KT P6SM BKN140 FM170200 28005KT P6SM BKN120 FM171200 VRB03KT P6SM BKN110 FM171800 12005KT P6SM BKN250

Decode

Destination Runways

ID Width Length Bearing (true) Bearing (mag) Surface Threshold Offset Overrun Length
07 60 ft / 18 m 4,098 ft / 1,249 m 89.26° 78.84° Asphalt 0 ft / 0 m 0 ft / 0 m
16 150 ft / 46 m 6,210 ft / 1,893 m 179.02° 168.60° Asphalt 0 ft / 0 m 0 ft / 0 m
25 60 ft / 18 m 4,098 ft / 1,249 m 269.27° 258.85° Asphalt 0 ft / 0 m 0 ft / 0 m
34 150 ft / 46 m 6,210 ft / 1,893 m 359.02° 348.60° Asphalt 0 ft / 0 m 0 ft / 0 m